Résultats

Le Trail des Etoiles, 35 Km, 2412 m D+. Édition 2021.

35 Km
17/07/2021 à 07:30:00 - SAINT-VERAN (Hautes-Alpes)
133 arrivant(e)s.


 
Les autres classements de cet évènement




Place▲ Temps Dossard Nom Prenom Categ #Categ Sexe #Sexe Club Vit Moy Diplôme Partager
1 03:50:14 4 RICHARD ALEXANDRE M1M 1 M 1 TEAM LA SPORTIVA FRANCE 9.38
2 03:57:18 126 PASERO TOMY SEM 1 M 2 9.10
3 04:01:37 117 SNICK JEROEN SEM 2 M 3 8.94
4 04:05:23 3 REGNERIE PASCAL M2M 1 M 4 TEAM PROVENCE ENDURANCE 8.80
5 04:06:00 130 YVENEC JEREMY SEM 3 M 5 TEAM SNOWSHOES 8.78
6 04:07:14 110 POUGE JEREMY JUM 1 M 6 8.74
7 04:10:54 5 DEGRENELLE QUENTIN SEM 4 M 7 8.61
8 04:11:46 8 DUPUY CLEMENT SEM 5 M 8 8.58
9 04:13:07 146 BOURBON JEAN-PATRICK M0M 1 M 9 BETES DE TRAIL 8.53
10 04:13:12 15 DUBOIS BENJAMIN SEM 6 M 10 8.53
11 04:13:22 93 REDAELLI TOMMASO SEM 7 M 11 ALPIN TRAIL CAF MARSEILLE 8.53
12 04:14:31 52 BILARDU SEBASTIEN M1M 2 M 12 8.49
13 04:16:30 6 COUDERT RONAN M0M 2 M 13 CRAPONNE TRIATHLON 8.42
14 04:20:00 12 TRAVERSO TONY M2M 2 M 14 8.31
15 04:21:53 134 CAPELLE CHRISTIAN M3M 1 M 15 RCB 8.25
16 04:24:15 127 CRISTOL OLIVIER ESM 1 M 16 8.17
17 04:25:56 40 DELCOUR EMMANUEL M1M 3 M 17 TERRILS DES HAUTS-DE-FRANCE 8.12
18 04:27:26 11 SIMONOT JULIEN SEM 8 M 18 MOUNTAIN SPORT LAB 8.08
19 04:27:34 7 DAUNAY QUENTIN SEM 9 M 19 AUSTRALOPITRAIL 8.07
20 04:27:56 120 MINASIAN CHRISTOPHE M1M 4 M 20 TRAIL CLUB DES AMIS 8.06
21 04:29:31 89 ANA REYNAUD SEF 1 F 1 8.01
22 04:30:19 37 CHU-QUANG MINH-CHAU M1F 1 F 2 7.99
23 04:31:55 139 DISDIER SIMON SEM 10 M 21 7.94
24 04:33:51 56 GOBET FABIEN M0M 3 M 22 7.89
25 04:34:15 10 VARRAINE ELODIE M2F 1 F 3 ATHLETIC CLUB FONT ROMEU 7.88
26 04:37:25 144 DENIS EMMANUEL M2M 3 M 23 SUD RAID AVENTURE 7.79
27 04:41:59 1 GOLLET THOMAS M0M 4 M 24 7.66
28 04:43:47 87 BARBIERA STEPHAN M3M 2 M 25 TOURRETTES ESPRIT TRAIL 7.61
29 04:45:26 29 FAYOLLE ARNAUD SEM 11 M 26 7.57
30 04:46:34 9 MALEJONOCK IRINA M2F 2 F 4 A3S 7.54
31 04:49:51 116 MACARTHUR GLENN ESM 2 M 27 7.45
32 04:52:57 70 CERON ALEXANDRE SEM 12 M 28 7.37
33 04:54:29 13 HAAS FLORENT SEM 13 M 29 TENNIS CLUB BRIANCON/L 7.33
34 04:55:10 61 JANVIER DIMITRI SEM 14 M 30 7.32
35 05:01:44 107 ABRASSART JUDITH M1F 2 F 5 TEAM COSTO 7.16
36 05:02:10 35 RUFFONI UGO M2M 4 M 31 GS VALGEROLA 7.15
37 05:06:24 111 BRIANCON HUGO ESM 3 M 32 7.05
38 05:06:35 22 BILLAUDEL GUSTAVE SEM 15 M 33 7.05
39 05:10:20 105 PENIGUET WILFRID M1M 5 M 34 ATHLETIC PONT REAN 6.96
40 05:10:45 123 WORMES SEBASTIEN M2M 5 M 35 6.95
41 05:10:46 94 KAFTANDJIAN PIERRE M3M 3 M 36 GRAND RAID DU GUILLESTROIS-QUEYRAS 6.95
42 05:10:54 147 GINESTE FRANCOISE M4F 1 F 6 6.95
43 05:20:01 128 REMY CYRIAQUE M4M 1 M 37 6.75
44 05:20:55 96 VIASSONE SERGE M5M 1 M 38 FOULEE SALONAISE 6.73
45 05:21:40 17 BABONAUX PHILIPPE M3M 4 M 39 SMAC SAINT MAXIMIN ATHLETIC CLUB 6.72
46 05:22:14 108 BONETTO LAETITIA M0F 1 F 7 6.70
47 05:22:26 51 BARON ANTOINE SEM 16 M 40 6.70
48 05:22:27 14 PERRIER FABRICE M1M 6 M 41 6.70
49 05:24:53 36 LOUHAIDIA ELMOUATASSIM SEM 17 M 42 6.65
50 05:28:56 114 GELY JEAN-FRANCOIS SEM 18 M 43 6.57
51 05:30:26 103 FIQUET MARC M3M 5 M 44 GH2A 6.54
52 05:30:47 73 RAYMOND BENJAMIN M0M 5 M 45 6.53
53 05:31:18 138 JOUVE GUILHEM M0M 6 M 46 COURIR A JUVIGNAC-LES SONNEURS 6.52
54 05:32:32 21 GODTSCHALCK CHRISTOPHE M3M 6 M 47 ASBR 6.50
55 05:33:16 90 JULIARD JEROME M0M 7 M 48 HIBOUX NIGHT SPIRIT 6.48
56 05:33:49 133 ZAOUCHKEVITCH ALEXANDRA M1F 3 F 8 OLYMPIQUE CABRIES CALAS 6.47
57 05:35:21 57 GURDJOGLOU ARNAUD M1M 7 M 49 VITROLLES TRIATHLON 6.44
58 05:36:11 23 CARULLA NICOLAS SEM 19 M 50 6.43
59 05:36:18 132 SAUNIER LAURENT M3M 7 M 51 OLYMPIQUE CABRIES CALAS 6.42
60 05:36:51 109 MEYER MIRIAM M2F 3 F 9 SERRE CHEVALIER BRIANCON ATHLETISME 6.41
61 05:39:01 19 DJIAN BENJAMIN SEM 20 M 52 LES JOGGEURS AUBAGNAIS 6.37
62 05:40:12 77 LE-BIHAN CAROLINE M1F 4 F 10 6.35
63 05:44:03 83 GAGO CHRISTOPHE M2M 6 M 53 6.28
64 05:47:20 55 FABRIS JUDIE SEF 2 F 11 6.22
65 05:50:20 171 BREGNAC OLIVIER M2M 7 M 54 7404AR ANNECY 6.17
66 05:51:17 115 BRUNET ARNAUD M2M 8 M 55 6.15
67 05:51:21 140 CATRIS STEPHANE M3M 8 M 56 OLYMPIQUE CABRIES CALAS 6.15
68 05:51:57 72 GAY JUSTINE SEF 3 F 12 6.14
69 05:52:45 119 GUILLOT PIERRE M5M 2 M 57 6.12
70 05:56:23 32 HAVRENNE JONATHAN M0M 8 M 58 AMARUQ RACING TEAM 6.06
71 05:59:42 100 LADUNE JEROME M1M 8 M 59 6.01
72 06:00:14 78 LOUVIOT JAMES M5M 3 M 60 SPEEDY CLUB DE PROVENCE 6.00
73 06:00:39 97 EYMARD LUCIA M0F 2 F 13 5.99
74 06:02:05 26 VANPEENE VICTOR SEM 21 M 61 5.97
75 06:03:55 143 CUENOT ERIC M2M 9 M 62 PAYS D'AIX TRAIL-EVADICT 5.94
76 06:09:46 106 MANDELLI MICHEL M3M 9 M 63 5.84
77 06:12:15 112 BRIANCON JACQUES M3M 10 M 64 5.80
78 06:14:39 122 RINGEISSEN JACQUES M5M 4 M 65 TAILLEFER TRAIL TEAM 5.77
79 06:15:53 113 FAYOLLE SEBASTIEN M1M 9 M 66 5.75
80 06:17:08 95 MARTIN DOMINIQUE M5M 5 M 67 5.73
81 06:18:40 91 GUERINET PATRICK M4M 2 M 68 MENTORS 5.70
82 06:20:58 76 DOREAU KEVIN SEM 22 M 69 5.67
83 06:21:30 54 MACAUX NICOLAS M2M 10 M 70 5.66
84 06:22:47 84 ZOUADI KHLIFA M1M 10 M 71 PAYS D'AIX TRAIL 5.64
85 06:23:06 121 LEDER MARYON M1F 5 F 14 5.64
86 06:23:29 65 DORNEL ANDREA M0F 3 F 15 5.63
87 06:24:43 53 CARTERY PIERRE SEM 23 M 72 5.61
88 06:33:39 141 PAOLI NATHALIE M3F 1 F 16 OLYMPIQUE DE CABRIES CALAS 5.49
89 06:33:52 145 SZPUNAR PIERRICK M1M 11 M 73 ERGE VRAS COURT 5.48
90 06:35:22 20 VARNEROT LORRAINE SEF 4 F 17 5.46
91 06:35:40 142 BARADEL SYLVIE M3F 2 F 18 5.46
92 06:36:40 85 BOUCHACOURT BENJAMIN SEM 24 M 74 MARSEILLE TRAIL CLUB 5.45
93 06:36:43 64 CARNIEL DAVID SEM 25 M 75 5.44
94 06:38:56 48 DEL-GUIDICE JEAN-PIERRE M5M 6 M 76 AMC AUBAGNE 5.41
95 06:48:50 82 COUQUIAUD JEROME M1M 12 M 77 MARSEILLE TRAIL CLUB 5.28
96 06:50:24 124 PULIZZI DAVID M2M 11 M 78 5.26
97 06:55:45 67 DELHAISE-RAMOND CHRISTOPHE M2M 12 M 79 5.20
98 06:55:45 68 DELHAISE-RAMOND HUGO ESM 4 M 80 5.20
99 06:56:12 49 DEPLANO THIERRY M2M 13 M 81 5.19
100 06:56:27 104 GILLIBERT JULIEN M1M 13 M 82 5.19